createdAt,value
2023-05-05T00:00:50.195Z,15.57
2023-05-05T00:01:50.241Z,15.56
2023-05-05T00:02:50.187Z,15.54
2023-05-05T00:03:50.334Z,15.51
2023-05-05T00:04:52.940Z,15.49
2023-05-05T00:05:50.173Z,15.43
2023-05-05T00:06:50.161Z,15.41
2023-05-05T00:07:50.127Z,15.39
2023-05-05T00:08:50.134Z,15.43
2023-05-05T00:09:50.080Z,15.44
2023-05-05T00:10:50.092Z,15.47
2023-05-05T00:11:50.089Z,15.47
2023-05-05T00:12:50.095Z,15.51
2023-05-05T00:13:50.090Z,15.54
2023-05-05T00:14:50.051Z,15.57
2023-05-05T00:15:50.059Z,15.57
2023-05-05T00:16:50.043Z,15.57
2023-05-05T00:17:50.049Z,15.56
2023-05-05T00:18:49.985Z,15.54
2023-05-05T00:19:49.988Z,15.53
2023-05-05T00:20:50.016Z,15.51
2023-05-05T00:21:49.974Z,15.51
2023-05-05T00:22:49.974Z,15.49
2023-05-05T00:23:49.992Z,15.49
2023-05-05T00:24:49.922Z,15.47
2023-05-05T00:25:49.951Z,15.44
2023-05-05T00:26:49.915Z,15.41
2023-05-05T00:27:50.231Z,15.38
2023-05-05T00:28:49.889Z,15.38
2023-05-05T00:29:49.877Z,15.35
2023-05-05T00:30:49.890Z,15.35
2023-05-05T00:31:49.848Z,15.32
2023-05-05T00:32:49.847Z,15.27
2023-05-05T00:33:49.872Z,15.27
2023-05-05T00:34:49.826Z,15.25
2023-05-05T00:35:49.822Z,15.25
2023-05-05T00:36:49.810Z,15.25
2023-05-05T00:37:49.823Z,15.25
2023-05-05T00:38:49.797Z,15.23
2023-05-05T00:39:49.755Z,15.25
2023-05-05T00:40:49.754Z,15.27
2023-05-05T00:41:49.753Z,15.27
2023-05-05T00:42:49.735Z,15.27
2023-05-05T00:43:49.752Z,15.25
2023-05-05T00:44:49.715Z,15.27
2023-05-05T00:45:49.709Z,15.27
2023-05-05T00:46:49.769Z,15.27
2023-05-05T00:47:49.710Z,15.27
2023-05-05T00:48:49.704Z,15.25
2023-05-05T00:49:49.662Z,15.21
2023-05-05T00:50:49.663Z,15.19
2023-05-05T00:51:49.629Z,15.16
2023-05-05T00:52:49.637Z,15.16
2023-05-05T00:53:49.617Z,15.13
2023-05-05T00:54:49.628Z,15.11
2023-05-05T00:55:49.613Z,15.11
2023-05-05T00:56:49.583Z,15.09
2023-05-05T00:57:49.596Z,15.09
2023-05-05T00:58:49.602Z,15.06
2023-05-05T00:59:49.548Z,15.02
2023-05-05T01:00:49.556Z,15.02
2023-05-05T01:01:49.596Z,15.02
2023-05-05T01:02:49.589Z,15.01
2023-05-05T01:03:49.576Z,14.99
2023-05-05T01:04:49.513Z,14.96
2023-05-05T01:05:49.501Z,14.95
2023-05-05T01:06:49.797Z,14.94
2023-05-05T01:07:49.460Z,14.92
2023-05-05T01:08:49.449Z,14.92
2023-05-05T01:09:53.566Z,14.94
2023-05-05T01:10:50.790Z,14.91
2023-05-05T01:11:49.433Z,14.91
2023-05-05T01:12:49.796Z,14.88
2023-05-05T01:13:49.403Z,14.84
2023-05-05T01:14:49.400Z,14.83
2023-05-05T01:15:49.400Z,14.80
2023-05-05T01:16:49.393Z,14.78
2023-05-05T01:17:49.443Z,14.78
2023-05-05T01:18:49.347Z,14.75
2023-05-05T01:19:49.392Z,14.73
2023-05-05T01:20:49.327Z,14.70
2023-05-05T01:21:49.331Z,14.69
2023-05-05T01:22:49.308Z,14.68
2023-05-05T01:23:49.593Z,14.68
2023-05-05T01:24:49.265Z,14.64
2023-05-05T01:25:49.266Z,14.62
2023-05-05T01:26:49.257Z,14.62
2023-05-05T01:27:49.252Z,14.60
2023-05-05T01:28:49.249Z,14.57
2023-05-05T01:29:49.222Z,14.51
2023-05-05T01:30:49.209Z,14.47
2023-05-05T01:31:49.257Z,14.45
2023-05-05T01:32:57.233Z,14.45
2023-05-05T01:33:57.200Z,14.43
2023-05-05T01:34:56.178Z,14.43
2023-05-05T01:35:57.198Z,14.42
2023-05-05T01:36:49.125Z,14.45
2023-05-05T01:37:57.654Z,14.40
2023-05-05T01:38:49.109Z,14.40
2023-05-05T01:39:49.123Z,14.40
2023-05-05T01:40:49.082Z,14.40
2023-05-05T01:41:49.080Z,14.39
2023-05-05T01:42:49.085Z,14.39
2023-05-05T01:43:49.061Z,14.42
2023-05-05T01:44:49.047Z,14.43
2023-05-05T01:45:49.062Z,14.43
2023-05-05T01:46:49.023Z,14.40
2023-05-05T01:47:49.057Z,14.40
2023-05-05T01:48:48.992Z,14.40
2023-05-05T01:49:49.005Z,14.39
2023-05-05T01:50:48.988Z,14.36
2023-05-05T01:51:48.980Z,14.35
2023-05-05T01:52:48.974Z,14.32
2023-05-05T01:53:48.942Z,14.35
2023-05-05T01:54:48.961Z,14.33
2023-05-05T01:55:49.029Z,14.33
2023-05-05T01:56:49.737Z,14.32
2023-05-05T01:57:48.917Z,14.29
2023-05-05T01:58:48.884Z,14.27
2023-05-05T01:59:48.909Z,14.27
2023-05-05T02:00:49.146Z,14.25
2023-05-05T02:01:48.877Z,14.25
2023-05-05T02:02:48.911Z,14.24
2023-05-05T02:03:48.820Z,14.24
2023-05-05T02:04:48.822Z,14.22
2023-05-05T02:05:48.821Z,14.21
2023-05-05T02:06:48.805Z,14.21
2023-05-05T02:07:48.783Z,14.17
2023-05-05T02:08:48.781Z,14.18
2023-05-05T02:09:48.766Z,14.15
2023-05-05T02:10:48.758Z,14.15
2023-05-05T02:11:48.746Z,14.14
2023-05-05T02:12:48.784Z,14.15
2023-05-05T02:13:48.773Z,14.15
2023-05-05T02:14:48.722Z,14.12
2023-05-05T02:15:48.718Z,14.10
2023-05-05T02:16:48.702Z,14.10
2023-05-05T02:17:48.693Z,14.07
2023-05-05T02:18:48.677Z,14.06
2023-05-05T02:19:48.651Z,14.04
2023-05-05T02:20:48.648Z,14.02
2023-05-05T02:21:48.672Z,14.02
2023-05-05T02:22:48.622Z,14.00
2023-05-05T02:23:48.616Z,14.00
2023-05-05T02:24:48.627Z,13.99
2023-05-05T02:25:48.589Z,13.99
2023-05-05T02:26:48.584Z,13.96
2023-05-05T02:27:48.612Z,13.95
2023-05-05T02:28:48.563Z,13.91
2023-05-05T02:29:48.538Z,13.91
2023-05-05T02:30:48.838Z,13.88
2023-05-05T02:31:48.590Z,13.87
2023-05-05T02:32:48.848Z,13.85
2023-05-05T02:33:48.504Z,13.81
2023-05-05T02:34:48.491Z,13.78
2023-05-05T02:35:48.483Z,13.78
2023-05-05T02:36:48.522Z,13.75
2023-05-05T02:37:48.485Z,13.70
2023-05-05T02:38:48.472Z,13.70
2023-05-05T02:39:48.450Z,13.69
2023-05-05T02:40:48.419Z,13.67
2023-05-05T02:41:48.426Z,13.66
2023-05-05T02:42:49.125Z,13.66
2023-05-05T02:43:48.411Z,13.64
2023-05-05T02:44:48.373Z,13.64
2023-05-05T02:45:48.392Z,13.66
2023-05-05T02:46:48.466Z,13.66
2023-05-05T02:47:48.429Z,13.66
2023-05-05T02:48:48.357Z,13.67
2023-05-05T02:49:48.339Z,13.67
2023-05-05T02:50:48.328Z,13.69
2023-05-05T02:51:48.299Z,13.69
2023-05-05T02:52:49.026Z,13.67
2023-05-05T02:53:48.301Z,13.69
2023-05-05T02:54:48.266Z,13.67
2023-05-05T02:55:48.257Z,13.67
2023-05-05T02:56:48.272Z,13.69
2023-05-05T02:57:48.224Z,13.69
2023-05-05T02:58:48.215Z,13.71
2023-05-05T02:59:48.196Z,13.75
2023-05-05T03:00:48.228Z,13.75
2023-05-05T03:01:48.215Z,13.73
2023-05-05T03:02:48.238Z,13.73
2023-05-05T03:03:48.338Z,13.71
2023-05-05T03:04:48.140Z,13.75
2023-05-05T03:05:48.139Z,13.77
2023-05-05T03:06:48.194Z,13.79
2023-05-05T03:07:48.113Z,13.84
2023-05-05T03:08:48.092Z,13.85
2023-05-05T03:09:48.090Z,13.88
2023-05-05T03:10:48.092Z,13.88
2023-05-05T03:11:48.083Z,13.88
2023-05-05T03:12:48.085Z,13.88
2023-05-05T03:13:48.030Z,13.89
2023-05-05T03:14:48.054Z,13.88
2023-05-05T03:15:48.071Z,13.88
2023-05-05T03:16:48.011Z,13.91
2023-05-05T03:17:48.057Z,13.92
2023-05-05T03:18:47.978Z,13.95
2023-05-05T03:19:47.981Z,13.96
2023-05-05T03:20:47.965Z,13.97
2023-05-05T03:21:47.980Z,13.97
2023-05-05T03:22:47.965Z,13.97
2023-05-05T03:23:47.943Z,13.97
2023-05-05T03:24:47.911Z,13.97
2023-05-05T03:25:47.903Z,13.96
2023-05-05T03:26:55.898Z,13.92
2023-05-05T03:27:47.881Z,13.92
2023-05-05T03:28:47.859Z,13.95
2023-05-05T03:29:47.884Z,13.92
2023-05-05T03:30:47.833Z,13.89
2023-05-05T03:31:48.616Z,13.88
2023-05-05T03:32:47.856Z,13.87
2023-05-05T03:33:47.809Z,13.87
2023-05-05T03:34:47.804Z,13.85
2023-05-05T03:35:47.841Z,13.85
2023-05-05T03:36:48.074Z,13.82
2023-05-05T03:37:47.779Z,13.84
2023-05-05T03:38:47.756Z,13.85
2023-05-05T03:39:47.733Z,13.82
2023-05-05T03:40:47.739Z,13.82
2023-05-05T03:41:47.761Z,13.81
2023-05-05T03:42:47.756Z,13.81
2023-05-05T03:43:47.689Z,13.79
2023-05-05T03:44:47.698Z,13.81
2023-05-05T03:45:47.795Z,13.81
2023-05-05T03:46:47.662Z,13.81
2023-05-05T03:47:47.954Z,13.79
2023-05-05T03:48:47.623Z,13.78
2023-05-05T03:49:47.634Z,13.73
2023-05-05T03:50:47.608Z,13.71
2023-05-05T03:51:47.622Z,13.71
2023-05-05T03:52:47.824Z,13.67
2023-05-05T03:53:47.582Z,13.66
2023-05-05T03:54:47.576Z,13.63
2023-05-05T03:55:47.573Z,13.63
2023-05-05T03:56:47.570Z,13.60
2023-05-05T03:57:47.532Z,13.60
2023-05-05T03:58:47.536Z,13.57
2023-05-05T03:59:47.532Z,13.54
2023-05-05T04:00:47.792Z,13.51
2023-05-05T04:01:47.502Z,13.48
2023-05-05T04:02:47.536Z,13.46
2023-05-05T04:03:47.549Z,13.45
2023-05-05T04:04:47.461Z,13.44
2023-05-05T04:05:47.476Z,13.39
2023-05-05T04:06:47.443Z,13.39
2023-05-05T04:07:47.431Z,13.36
2023-05-05T04:08:47.424Z,13.33
2023-05-05T04:09:47.398Z,13.32
2023-05-05T04:10:47.372Z,13.30
2023-05-05T04:11:47.418Z,13.30
2023-05-05T04:12:47.372Z,13.32
2023-05-05T04:13:47.362Z,13.32
2023-05-05T04:14:47.330Z,13.29
2023-05-05T04:15:47.380Z,13.30
2023-05-05T04:16:47.327Z,13.32
2023-05-05T04:17:47.344Z,13.33
2023-05-05T04:18:47.294Z,13.33
2023-05-05T04:19:47.280Z,13.32
2023-05-05T04:20:47.274Z,13.32
2023-05-05T04:21:47.287Z,13.30
2023-05-05T04:22:47.242Z,13.30
2023-05-05T04:23:47.223Z,13.33
2023-05-05T04:24:47.229Z,13.36
2023-05-05T04:25:47.226Z,13.39
2023-05-05T04:26:47.189Z,13.41
2023-05-05T04:27:47.247Z,13.42
2023-05-05T04:28:47.180Z,13.42
2023-05-05T04:29:47.165Z,13.44
2023-05-05T04:30:47.262Z,13.46
2023-05-05T04:31:47.342Z,13.49
2023-05-05T04:32:47.166Z,13.51
2023-05-05T04:33:47.113Z,13.51
2023-05-05T04:34:47.108Z,13.54
2023-05-05T04:35:47.088Z,13.54
2023-05-05T04:36:47.134Z,13.57
2023-05-05T04:37:47.080Z,13.60
2023-05-05T04:38:49.848Z,13.63
2023-05-05T04:39:47.050Z,13.63
2023-05-05T04:40:47.055Z,13.64
2023-05-05T04:41:47.052Z,13.69
2023-05-05T04:42:47.051Z,13.70
2023-05-05T04:43:47.001Z,13.75
2023-05-05T04:44:48.775Z,13.81
2023-05-05T04:45:46.994Z,13.85
2023-05-05T04:46:47.014Z,13.92
2023-05-05T04:47:47.039Z,13.99
2023-05-05T04:48:46.951Z,14.02
2023-05-05T04:49:46.918Z,14.04
2023-05-05T04:50:46.938Z,14.09
2023-05-05T04:51:46.946Z,14.07
2023-05-05T04:52:46.905Z,14.09
2023-05-05T04:53:46.901Z,14.10
2023-05-05T04:54:46.908Z,14.14
2023-05-05T04:55:46.860Z,14.17
2023-05-05T04:56:46.892Z,14.20
2023-05-05T04:57:46.859Z,14.22
2023-05-05T04:58:46.842Z,14.25
2023-05-05T04:59:46.825Z,14.29
2023-05-05T05:00:46.826Z,14.33
2023-05-05T05:01:46.855Z,14.37
2023-05-05T05:02:46.856Z,14.40
2023-05-05T05:03:46.914Z,14.45
2023-05-05T05:04:46.755Z,14.46
2023-05-05T05:05:47.478Z,14.50
2023-05-05T05:06:46.773Z,14.54
2023-05-05T05:07:46.728Z,14.60
2023-05-05T05:08:46.700Z,14.62
2023-05-05T05:09:46.749Z,14.64
2023-05-05T05:10:46.709Z,14.70
2023-05-05T05:11:46.685Z,14.73
2023-05-05T05:12:46.689Z,14.75
2023-05-05T05:13:46.668Z,14.77
2023-05-05T05:14:46.653Z,14.80
2023-05-05T05:15:46.761Z,14.83
2023-05-05T05:16:46.724Z,14.83
2023-05-05T05:17:46.652Z,14.84
2023-05-05T05:18:46.600Z,14.86
2023-05-05T05:19:46.605Z,14.88
2023-05-05T05:20:55.143Z,14.91
2023-05-05T05:21:46.639Z,14.91
2023-05-05T05:22:46.544Z,14.91
2023-05-05T05:23:46.542Z,14.94
2023-05-05T05:24:46.531Z,14.92
2023-05-05T05:25:46.539Z,14.94
2023-05-05T05:26:46.525Z,14.95
2023-05-05T05:27:50.160Z,14.96
2023-05-05T05:28:47.505Z,14.96
2023-05-05T05:29:46.517Z,14.96
2023-05-05T05:30:46.486Z,14.96
2023-05-05T05:31:49.295Z,14.95
2023-05-05T05:32:46.499Z,14.96
2023-05-05T05:33:46.422Z,14.98
2023-05-05T05:34:46.411Z,15.01
2023-05-05T05:35:46.427Z,15.06
2023-05-05T05:36:46.417Z,15.13
2023-05-05T05:37:46.396Z,15.19
2023-05-05T05:38:46.395Z,15.27
2023-05-05T05:39:46.360Z,15.29
2023-05-05T05:40:46.361Z,15.34
2023-05-05T05:41:46.369Z,15.35
2023-05-05T05:42:46.331Z,15.39
2023-05-05T05:43:46.322Z,15.41
2023-05-05T05:44:46.303Z,15.43
2023-05-05T05:45:46.338Z,15.46
2023-05-05T05:46:46.293Z,15.47
2023-05-05T05:47:46.316Z,15.50
2023-05-05T05:48:46.262Z,15.56
2023-05-05T05:49:46.281Z,15.57
2023-05-05T05:50:46.255Z,15.60
2023-05-05T05:51:46.241Z,15.64
2023-05-05T05:52:46.219Z,15.62
2023-05-05T05:53:46.207Z,15.64
2023-05-05T05:54:46.213Z,15.67
2023-05-05T05:55:46.183Z,15.68
2023-05-05T05:56:46.183Z,15.71
2023-05-05T05:57:46.154Z,15.74
2023-05-05T05:58:46.141Z,15.74
2023-05-05T05:59:46.145Z,15.76
2023-05-05T06:00:46.153Z,15.80
2023-05-05T06:01:46.132Z,15.82
2023-05-05T06:02:46.148Z,15.83
2023-05-05T06:03:46.350Z,15.84
2023-05-05T06:04:46.079Z,15.87
2023-05-05T06:05:46.086Z,15.89
2023-05-05T06:06:46.082Z,15.90
2023-05-05T06:07:46.058Z,15.90
2023-05-05T06:08:46.035Z,15.90
2023-05-05T06:09:46.050Z,15.90
2023-05-05T06:10:46.041Z,15.93
2023-05-05T06:11:45.995Z,15.92
2023-05-05T06:12:46.021Z,15.90
2023-05-05T06:13:45.971Z,15.90
2023-05-05T06:14:45.973Z,15.92
2023-05-05T06:15:46.757Z,15.92
2023-05-05T06:16:45.965Z,15.92
2023-05-05T06:17:45.938Z,15.92
2023-05-05T06:18:45.964Z,15.94
2023-05-05T06:19:46.789Z,15.96
2023-05-05T06:20:45.948Z,15.96
2023-05-05T06:21:45.932Z,16.00
2023-05-05T06:22:45.894Z,16.02
2023-05-05T06:23:45.874Z,16.04
2023-05-05T06:24:45.888Z,16.07
2023-05-05T06:25:45.852Z,16.08
2023-05-05T06:26:45.851Z,16.07
2023-05-05T06:27:45.820Z,16.11
2023-05-05T06:28:45.828Z,16.12
2023-05-05T06:29:45.813Z,16.14
2023-05-05T06:30:45.801Z,16.20
2023-05-05T06:31:45.892Z,16.23
2023-05-05T06:32:45.818Z,16.27
2023-05-05T06:33:45.781Z,16.31
2023-05-05T06:34:45.747Z,16.35
2023-05-05T06:35:45.741Z,16.38
2023-05-05T06:36:45.768Z,16.41
2023-05-05T06:37:45.728Z,16.41
2023-05-05T06:38:45.729Z,16.43
2023-05-05T06:39:45.704Z,16.46
2023-05-05T06:40:45.691Z,16.50
2023-05-05T06:41:45.704Z,16.53
2023-05-05T06:42:45.669Z,16.57
2023-05-05T06:43:45.647Z,16.60
2023-05-05T06:44:45.703Z,16.66
2023-05-05T06:45:45.656Z,16.68
2023-05-05T06:46:45.702Z,16.71
2023-05-05T06:47:45.696Z,16.75
2023-05-05T06:48:45.598Z,16.78
2023-05-05T06:49:45.573Z,16.85
2023-05-05T06:50:45.619Z,16.91
2023-05-05T06:51:45.562Z,16.97
2023-05-05T06:52:45.545Z,17.07
2023-05-05T06:53:45.557Z,17.15
2023-05-05T06:54:45.513Z,17.22
2023-05-05T06:55:45.513Z,17.31
2023-05-05T06:56:45.660Z,17.37
2023-05-05T06:57:45.492Z,17.44
2023-05-05T06:58:45.476Z,17.51
2023-05-05T06:59:45.466Z,17.52
2023-05-05T07:00:45.484Z,17.56
2023-05-05T07:01:45.446Z,17.62
2023-05-05T07:02:45.560Z,17.62
2023-05-05T07:03:45.671Z,17.68
2023-05-05T07:04:45.408Z,17.78
2023-05-05T07:05:45.402Z,17.87
2023-05-05T07:06:45.387Z,17.97
2023-05-05T07:07:45.368Z,18.05
2023-05-05T07:08:45.358Z,18.07
2023-05-05T07:09:45.339Z,18.14
2023-05-05T07:10:45.359Z,18.20
2023-05-05T07:11:45.309Z,18.27
2023-05-05T07:12:45.352Z,18.33
2023-05-05T07:13:45.330Z,18.37
2023-05-05T07:14:45.348Z,18.48
2023-05-05T07:15:52.412Z,18.55
2023-05-05T07:16:45.298Z,18.67
2023-05-05T07:17:45.323Z,18.78
2023-05-05T07:18:45.318Z,18.84
2023-05-05T07:19:45.379Z,18.82
2023-05-05T07:20:45.205Z,18.76
2023-05-05T07:21:45.247Z,18.65
2023-05-05T07:22:45.199Z,18.67
2023-05-05T07:23:45.212Z,18.75
2023-05-05T07:24:45.214Z,18.82
2023-05-05T07:25:45.183Z,18.90
2023-05-05T07:26:45.192Z,18.95
2023-05-05T07:27:45.190Z,19.02
2023-05-05T07:28:45.162Z,19.11
2023-05-05T07:29:45.214Z,19.19
2023-05-05T07:30:45.110Z,19.22
2023-05-05T07:31:45.159Z,19.16
2023-05-05T07:32:45.161Z,19.16
2023-05-05T07:33:45.098Z,19.19
2023-05-05T07:34:45.114Z,19.16
2023-05-05T07:35:45.081Z,19.21
2023-05-05T07:36:45.070Z,19.28
2023-05-05T07:37:45.047Z,19.31
2023-05-05T07:38:45.026Z,19.33
2023-05-05T07:39:45.034Z,19.29
2023-05-05T07:40:45.036Z,19.22
2023-05-05T07:41:45.031Z,19.26
2023-05-05T07:42:44.990Z,19.26
2023-05-05T07:43:44.980Z,19.29
2023-05-05T07:44:44.962Z,19.25
2023-05-05T07:45:44.972Z,19.22
2023-05-05T07:46:44.944Z,19.19
2023-05-05T07:47:44.967Z,19.14
2023-05-05T07:48:44.910Z,19.13
2023-05-05T07:49:44.915Z,19.16
2023-05-05T07:50:44.971Z,19.19
2023-05-05T07:51:44.888Z,19.23
2023-05-05T07:52:50.031Z,19.29
2023-05-05T07:53:45.860Z,19.31
2023-05-05T07:54:44.858Z,19.32
2023-05-05T07:55:44.865Z,19.36
2023-05-05T07:56:44.828Z,19.41
2023-05-05T07:57:44.813Z,19.41
2023-05-05T07:58:44.816Z,19.44
2023-05-05T07:59:44.792Z,19.51
2023-05-05T08:00:44.792Z,19.62
2023-05-05T08:01:44.784Z,19.73
2023-05-05T08:02:46.669Z,19.76
2023-05-05T08:03:44.851Z,19.71
2023-05-05T08:04:44.792Z,19.76
2023-05-05T08:05:44.762Z,19.84
2023-05-05T08:06:44.710Z,19.91
2023-05-05T08:07:44.699Z,19.87
2023-05-05T08:08:44.724Z,19.84
2023-05-05T08:09:44.664Z,19.84
2023-05-05T08:10:44.672Z,19.81
2023-05-05T08:11:44.688Z,19.83
2023-05-05T08:12:44.699Z,19.83
2023-05-05T08:13:44.726Z,19.81
2023-05-05T08:14:44.664Z,19.84
2023-05-05T08:15:45.000Z,19.88
2023-05-05T08:16:44.598Z,19.87
2023-05-05T08:17:44.667Z,19.80
2023-05-05T08:18:44.593Z,19.73
2023-05-05T08:19:44.580Z,19.78
2023-05-05T08:20:44.585Z,19.83
2023-05-05T08:21:44.544Z,19.88
2023-05-05T08:22:44.548Z,19.87
2023-05-05T08:23:44.543Z,19.76
2023-05-05T08:24:44.511Z,19.76
2023-05-05T08:25:44.520Z,19.63
2023-05-05T08:26:44.520Z,19.59
2023-05-05T08:27:44.488Z,19.62
2023-05-05T08:28:44.472Z,19.73
2023-05-05T08:29:44.492Z,19.69
2023-05-05T08:30:44.449Z,19.73
2023-05-05T08:31:44.471Z,19.81
2023-05-05T08:32:44.475Z,19.88
2023-05-05T08:33:44.415Z,19.96
2023-05-05T08:34:44.414Z,20.02
2023-05-05T08:35:44.408Z,20.01
2023-05-05T08:36:44.387Z,19.98
2023-05-05T08:37:44.378Z,19.98
2023-05-05T08:38:44.400Z,19.95
2023-05-05T08:39:44.345Z,20.02
2023-05-05T08:40:44.354Z,20.06
2023-05-05T08:41:44.360Z,20.11
2023-05-05T08:42:44.466Z,20.20
2023-05-05T08:43:44.311Z,20.24
2023-05-05T08:44:44.320Z,20.24
2023-05-05T08:45:44.294Z,19.84
2023-05-05T08:46:44.302Z,19.87
2023-05-05T08:47:44.292Z,20.03
2023-05-05T08:48:44.255Z,20.20
2023-05-05T08:49:44.236Z,20.28
2023-05-05T08:50:44.255Z,20.29
2023-05-05T08:51:44.226Z,20.42
2023-05-05T08:52:44.843Z,20.50
2023-05-05T08:53:44.217Z,20.54
2023-05-05T08:54:44.190Z,20.62
2023-05-05T08:55:44.198Z,20.73
2023-05-05T08:56:44.195Z,20.82
2023-05-05T08:57:44.155Z,20.91
2023-05-05T08:58:44.130Z,20.77
2023-05-05T08:59:44.139Z,20.61
2023-05-05T09:00:44.137Z,20.48
2023-05-05T09:01:44.152Z,20.39
2023-05-05T09:02:52.734Z,20.43
2023-05-05T09:03:44.101Z,20.54
2023-05-05T09:04:44.126Z,20.59
2023-05-05T09:05:44.076Z,20.66
2023-05-05T09:06:44.059Z,20.72
2023-05-05T09:07:52.062Z,20.77
2023-05-05T09:08:44.020Z,20.87
2023-05-05T09:09:44.010Z,20.92
2023-05-05T09:10:44.030Z,20.95
2023-05-05T09:11:44.007Z,20.97
2023-05-05T09:12:44.020Z,20.97
2023-05-05T09:13:43.988Z,21.03
2023-05-05T09:14:43.984Z,20.97
2023-05-05T09:15:44.013Z,20.98
2023-05-05T09:16:43.978Z,20.95
2023-05-05T09:17:43.959Z,20.77
2023-05-05T09:18:43.925Z,20.74
2023-05-05T09:19:43.894Z,20.67
2023-05-05T09:20:43.889Z,20.67
2023-05-05T09:21:43.888Z,20.73
2023-05-05T09:22:43.917Z,20.79
2023-05-05T09:23:43.849Z,20.82
2023-05-05T09:24:43.900Z,20.82
2023-05-05T09:25:43.824Z,20.82
2023-05-05T09:26:43.827Z,20.87
2023-05-05T09:27:43.830Z,20.94
2023-05-05T09:28:43.804Z,21.06
2023-05-05T09:29:43.808Z,21.12
2023-05-05T09:30:43.859Z,21.13
2023-05-05T09:31:43.755Z,21.14
2023-05-05T09:32:43.782Z,21.06
2023-05-05T09:33:43.759Z,20.92
2023-05-05T09:34:43.761Z,20.91
2023-05-05T09:35:43.720Z,20.91
2023-05-05T09:36:43.727Z,20.88
2023-05-05T09:37:43.705Z,20.91
2023-05-05T09:38:43.709Z,20.89
2023-05-05T09:39:43.689Z,20.99
2023-05-05T09:40:43.703Z,21.10
2023-05-05T09:41:43.669Z,21.12
2023-05-05T09:42:43.663Z,21.07
2023-05-05T09:43:44.635Z,20.95
2023-05-05T09:44:43.662Z,20.88
2023-05-05T09:45:43.616Z,20.89
2023-05-05T09:46:43.633Z,20.89
2023-05-05T09:47:43.620Z,20.94
2023-05-05T09:48:43.575Z,20.94
2023-05-05T09:49:43.563Z,20.92
2023-05-05T09:50:43.545Z,20.82
2023-05-05T09:51:43.559Z,20.79
2023-05-05T09:52:43.526Z,20.82
2023-05-05T09:53:43.504Z,20.80
2023-05-05T09:54:43.554Z,20.74
2023-05-05T09:55:43.516Z,20.74
2023-05-05T09:56:43.470Z,20.67
2023-05-05T09:57:43.476Z,20.54
2023-05-05T09:58:43.484Z,20.52
2023-05-05T09:59:43.441Z,20.42
2023-05-05T10:00:43.450Z,20.43
2023-05-05T10:01:43.496Z,20.43
2023-05-05T10:02:43.479Z,20.43
2023-05-05T10:03:44.234Z,20.50
2023-05-05T10:04:43.421Z,20.50
2023-05-05T10:05:43.398Z,20.54
2023-05-05T10:06:43.354Z,20.57
2023-05-05T10:07:43.345Z,20.57
2023-05-05T10:08:43.333Z,20.61
2023-05-05T10:09:43.352Z,20.58
2023-05-05T10:10:43.361Z,20.58
2023-05-05T10:11:43.329Z,20.58
2023-05-05T10:12:43.363Z,20.62
2023-05-05T10:13:43.306Z,20.61
2023-05-05T10:14:45.157Z,20.70
2023-05-05T10:15:43.282Z,20.74
2023-05-05T10:16:43.293Z,20.84
2023-05-05T10:17:53.960Z,20.92
2023-05-05T10:18:44.272Z,21.04
2023-05-05T10:19:43.241Z,21.13
2023-05-05T10:20:43.217Z,21.27
2023-05-05T10:21:43.216Z,21.43
2023-05-05T10:22:43.173Z,21.56
2023-05-05T10:23:44.376Z,21.56
2023-05-05T10:24:43.152Z,21.53
2023-05-05T10:25:43.192Z,21.52
2023-05-05T10:26:43.133Z,21.56
2023-05-05T10:27:43.115Z,21.61
2023-05-05T10:28:43.124Z,21.69
2023-05-05T10:29:43.107Z,21.77
2023-05-05T10:30:43.120Z,21.71
2023-05-05T10:31:43.170Z,21.67
2023-05-05T10:33:43.350Z,21.75
2023-05-05T10:34:43.160Z,21.83
2023-05-05T10:35:43.049Z,21.90
2023-05-05T10:36:43.040Z,21.83
2023-05-05T10:37:43.017Z,21.86
2023-05-05T10:38:43.001Z,21.96
2023-05-05T10:39:43.010Z,22.02
2023-05-05T10:40:42.995Z,22.17
2023-05-05T10:41:43.235Z,22.24
2023-05-05T10:42:42.983Z,22.25
2023-05-05T10:43:42.937Z,22.27
2023-05-05T10:44:42.951Z,22.36
2023-05-05T10:45:43.160Z,22.49
2023-05-05T10:46:42.967Z,22.46
2023-05-05T10:47:42.908Z,22.37
2023-05-05T10:48:42.945Z,22.24
2023-05-05T10:49:42.885Z,22.14
2023-05-05T10:50:42.872Z,22.00
2023-05-05T10:51:42.853Z,21.91
2023-05-05T10:52:42.839Z,21.90
2023-05-05T10:53:42.875Z,21.94
2023-05-05T10:54:42.829Z,21.92
2023-05-05T10:55:42.813Z,21.94
2023-05-05T10:56:42.820Z,22.12
2023-05-05T10:57:42.804Z,22.36
2023-05-05T11:08:31.691Z,23.04
2023-05-05T11:09:31.660Z,22.68
2023-05-05T11:10:31.666Z,22.70
2023-05-05T11:11:31.626Z,22.62
2023-05-05T11:12:31.750Z,22.75
2023-05-05T11:13:31.705Z,22.92
2023-05-05T11:14:31.591Z,22.95
2023-05-05T11:15:31.729Z,22.90
2023-05-05T11:16:31.622Z,22.80
2023-05-05T11:17:31.659Z,22.79
2023-05-05T11:18:31.540Z,22.77
2023-05-05T11:19:31.546Z,22.79
2023-05-05T11:20:31.538Z,22.86
2023-05-05T11:21:31.638Z,22.97
2023-05-05T11:22:31.508Z,23.00
2023-05-05T11:23:31.513Z,22.79
2023-05-05T11:24:31.519Z,22.64
2023-05-05T11:25:31.542Z,22.51
2023-05-05T11:26:31.502Z,22.39
2023-05-05T11:27:31.455Z,22.37
2023-05-05T11:28:31.528Z,22.33
2023-05-05T11:29:31.492Z,22.36
2023-05-05T11:30:31.497Z,22.36
2023-05-05T11:31:31.425Z,22.37
2023-05-05T11:32:31.475Z,22.37
2023-05-05T11:33:31.581Z,22.40
2023-05-05T11:34:31.386Z,22.45
2023-05-05T11:35:31.391Z,22.40
2023-05-05T11:36:31.368Z,22.28
2023-05-05T11:37:31.408Z,22.05
2023-05-05T11:38:31.376Z,21.84
2023-05-05T11:39:31.323Z,21.69
2023-05-05T11:40:31.382Z,21.27
2023-05-05T11:41:31.338Z,20.47
2023-05-05T11:42:31.671Z,20.02
2023-05-05T11:43:31.308Z,19.65
2023-05-05T11:44:31.262Z,19.40
2023-05-05T11:45:31.303Z,19.23
2023-05-05T11:46:31.269Z,18.85
2023-05-05T11:47:31.296Z,18.67
2023-05-05T11:48:31.217Z,18.45
2023-05-05T11:49:31.223Z,18.37
2023-05-05T11:50:31.269Z,18.29
2023-05-05T11:51:31.217Z,18.18
2023-05-05T11:52:31.188Z,18.21
2023-05-05T11:53:31.171Z,18.18
2023-05-05T11:54:31.204Z,18.18
2023-05-05T11:55:31.162Z,18.15
2023-05-05T11:56:31.160Z,18.15
2023-05-05T11:57:31.123Z,18.14
2023-05-05T11:58:31.130Z,18.20
2023-05-05T11:59:31.128Z,18.17
2023-05-05T12:00:31.094Z,18.26
2023-05-05T12:01:31.103Z,18.27
2023-05-05T12:02:31.248Z,18.27
2023-05-05T12:03:31.372Z,18.29
2023-05-05T12:04:31.101Z,18.27
2023-05-05T12:05:31.050Z,18.30
2023-05-05T12:06:31.036Z,18.36
2023-05-05T12:07:31.037Z,18.45
2023-05-05T12:08:30.998Z,18.45
2023-05-05T12:09:30.996Z,18.54
2023-05-05T12:10:30.990Z,18.65
2023-05-05T12:11:31.100Z,18.78
2023-05-05T12:12:31.044Z,18.90
2023-05-05T12:13:32.693Z,19.02
2023-05-05T12:14:30.974Z,19.06
2023-05-05T12:15:30.935Z,19.06
2023-05-05T12:16:36.009Z,19.13
2023-05-05T12:17:30.923Z,19.29
2023-05-05T12:18:30.952Z,19.43
2023-05-05T12:19:30.872Z,19.58
2023-05-05T12:20:30.869Z,19.62
2023-05-05T12:21:30.905Z,19.68
2023-05-05T12:22:30.906Z,19.77
2023-05-05T12:23:30.890Z,19.86
2023-05-05T12:24:30.851Z,19.92
2023-05-05T12:25:30.893Z,19.92
2023-05-05T12:26:30.804Z,19.99
2023-05-05T12:27:30.828Z,20.01
2023-05-05T12:28:30.773Z,19.87
2023-05-05T12:29:31.090Z,19.94
2023-05-05T12:30:30.798Z,20.05
2023-05-05T12:31:30.814Z,20.11
2023-05-05T12:32:30.794Z,20.14
2023-05-05T12:33:30.755Z,20.17
2023-05-05T12:39:25.988Z,19.96
2023-05-05T12:40:25.941Z,19.92
2023-05-05T12:41:25.925Z,19.88
2023-05-05T12:42:25.886Z,19.94
2023-05-05T12:43:25.915Z,19.91
2023-05-05T12:44:27.687Z,19.96
2023-05-05T12:45:25.869Z,19.99
2023-05-05T12:46:25.912Z,19.94
2023-05-05T12:47:25.869Z,19.91
2023-05-05T12:48:25.822Z,19.77
2023-05-05T12:49:25.855Z,19.69
2023-05-05T12:50:25.834Z,19.84
2023-05-05T12:51:25.839Z,19.98
2023-05-05T12:52:25.851Z,19.88
2023-05-05T12:53:25.780Z,19.76
2023-05-05T12:54:25.763Z,19.83
2023-05-05T12:55:25.816Z,19.86
2023-05-05T12:56:25.781Z,19.98
2023-05-05T12:59:58.250Z,20.16
2023-05-05T13:04:55.142Z,19.98
2023-05-05T13:05:54.869Z,19.87
2023-05-05T13:06:56.658Z,19.91
2023-05-05T13:07:57.625Z,19.86
2023-05-05T13:08:55.045Z,20.02
2023-05-05T13:09:54.852Z,20.11
2023-05-05T13:10:54.797Z,19.96
2023-05-05T13:11:54.839Z,19.80
2023-05-05T13:12:54.918Z,19.91
2023-05-05T13:13:54.763Z,20.08
2023-05-05T13:14:54.778Z,20.16